Impacts TAF Board
For situational awareness. Not to be used for flight planning purposes.
IDs:

KPHX - Phoenix/Sky Harbor, AZ, US

Issued at 1403 UTC 21 May 2019
Updated at 1442 UTC 21 May 2019
Potential Impact None Slight Moderate High
Time<<22/03Z 22/04Z 22/05Z 22/06Z 22/07Z 22/08Z 22/09Z 22/10Z 22/11Z 22/12Z 22/13Z 22/14Z 22/15Z>>
Type PRVL PRVL PRVL PRVL PRVL PRVL PRVL PRVL PRVL PRVL PRVL PRVL PRVL
VIS >6 >6 >6 >6 >6 >6 >6 >6 >6 >6 >6 >6 >6
CIG -- -- -- -- -- -- -- -- -- -- -- -- --
Cover FEW FEW FEW FEW FEW FEW FEW FEW FEW FEW FEW FEW FEW
FltCat VFR VFR VFR VFR VFR VFR VFR VFR VFR VFR VFR VFR VFR
WX -- -- -- -- -- -- -- -- -- -- -- -- --
WDir 250 250 250 270 270 270 270 270 270 270 270 270 270
WSpd 17 17 17 8 8 8 8 8 8 8 8 8 8
WGst 27 27 27 -- -- -- -- -- -- -- -- -- --
Raw TAF
KPHX 211403Z 2114/2218 10010KT P6SM FEW100
  FM211600 16010KT P6SM FEW250
  FM211800 22010KT P6SM FEW040 FEW250
  FM212000 25017G27KT P6SM FEW080 FEW250
  FM220600 27008KT P6SM FEW250


METAR Board
Radar Display
Forecast Discussion
For situational awareness. Not to be used for flight planning purposes.